sensor_id;sensor_type;location;lat;lon;timestamp;P1;durP1;ratioP1;P2;durP2;ratioP2
9972;SDS011;5027;53.560;10.062;2023-01-28T00:01:16;4.00;;;1.63;;
9972;SDS011;5027;53.560;10.062;2023-01-28T00:03:43;4.97;;;1.80;;
9972;SDS011;5027;53.560;10.062;2023-01-28T00:06:13;3.00;;;1.73;;
9972;SDS011;5027;53.560;10.062;2023-01-28T00:08:40;3.77;;;1.60;;
9972;SDS011;5027;53.560;10.062;2023-01-28T00:11:08;4.00;;;2.00;;
9972;SDS011;5027;53.560;10.062;2023-01-28T00:13:37;3.90;;;1.70;;
9972;SDS011;5027;53.560;10.062;2023-01-28T00:16:04;4.43;;;2.03;;
9972;SDS011;5027;53.560;10.062;2023-01-28T00:18:34;6.07;;;1.70;;
9972;SDS011;5027;53.560;10.062;2023-01-28T00:21:02;5.03;;;1.63;;
9972;SDS011;5027;53.560;10.062;2023-01-28T00:23:33;5.27;;;1.83;;
9972;SDS011;5027;53.560;10.062;2023-01-28T00:26:02;2.50;;;1.77;;
9972;SDS011;5027;53.560;10.062;2023-01-28T00:28:30;5.47;;;1.57;;
9972;SDS011;5027;53.560;10.062;2023-01-28T00:30:57;3.23;;;1.47;;
9972;SDS011;5027;53.560;10.062;2023-01-28T00:33:25;2.80;;;2.03;;
9972;SDS011;5027;53.560;10.062;2023-01-28T00:35:58;3.90;;;1.50;;
9972;SDS011;5027;53.560;10.062;2023-01-28T00:38:26;5.20;;;1.50;;
9972;SDS011;5027;53.560;10.062;2023-01-28T00:40:53;3.10;;;1.40;;
9972;SDS011;5027;53.560;10.062;2023-01-28T00:43:21;2.00;;;1.63;;
9972;SDS011;5027;53.560;10.062;2023-01-28T00:45:48;3.03;;;1.20;;
9972;SDS011;5027;53.560;10.062;2023-01-28T00:48:15;1.97;;;1.10;;
9972;SDS011;5027;53.560;10.062;2023-01-28T00:50:43;2.23;;;1.27;;
9972;SDS011;5027;53.560;10.062;2023-01-28T00:53:10;6.73;;;1.40;;
9972;SDS011;5027;53.560;10.062;2023-01-28T00:55:37;2.70;;;1.60;;
9972;SDS011;5027;53.560;10.062;2023-01-28T00:58:04;2.37;;;1.40;;
9972;SDS011;5027;53.560;10.062;2023-01-28T01:00:30;4.43;;;1.60;;
9972;SDS011;5027;53.560;10.062;2023-01-28T01:02:57;1.80;;;1.40;;
9972;SDS011;5027;53.560;10.062;2023-01-28T01:05:24;3.70;;;1.57;;
9972;SDS011;5027;53.560;10.062;2023-01-28T01:07:51;3.43;;;1.60;;
9972;SDS011;5027;53.560;10.062;2023-01-28T01:10:18;2.73;;;1.60;;
9972;SDS011;5027;53.560;10.062;2023-01-28T01:12:45;3.43;;;1.70;;
9972;SDS011;5027;53.560;10.062;2023-01-28T01:15:12;2.73;;;1.57;;
9972;SDS011;5027;53.560;10.062;2023-01-28T01:17:41;2.93;;;1.50;;
9972;SDS011;5027;53.560;10.062;2023-01-28T01:20:17;2.60;;;1.60;;
9972;SDS011;5027;53.560;10.062;2023-01-28T01:22:45;3.27;;;1.80;;
9972;SDS011;5027;53.560;10.062;2023-01-28T01:25:13;3.37;;;1.63;;
9972;SDS011;5027;53.560;10.062;2023-01-28T01:27:42;3.63;;;1.60;;
9972;SDS011;5027;53.560;10.062;2023-01-28T01:30:11;3.00;;;1.63;;
9972;SDS011;5027;53.560;10.062;2023-01-28T01:32:38;4.17;;;1.30;;
9972;SDS011;5027;53.560;10.062;2023-01-28T01:35:04;4.23;;;2.00;;
9972;SDS011;5027;53.560;10.062;2023-01-28T01:37:33;3.77;;;1.70;;
9972;SDS011;5027;53.560;10.062;2023-01-28T01:40:01;5.53;;;1.80;;
9972;SDS011;5027;53.560;10.062;2023-01-28T01:42:32;2.57;;;1.70;;
9972;SDS011;5027;53.560;10.062;2023-01-28T01:49:59;3.37;;;1.37;;
9972;SDS011;5027;53.560;10.062;2023-01-28T01:52:33;4.53;;;1.40;;
9972;SDS011;5027;53.560;10.062;2023-01-28T01:55:02;3.37;;;1.57;;
9972;SDS011;5027;53.560;10.062;2023-01-28T01:57:34;3.23;;;1.73;;
9972;SDS011;5027;53.560;10.062;2023-01-28T02:00:03;2.23;;;1.30;;
9972;SDS011;5027;53.560;10.062;2023-01-28T02:02:45;3.13;;;1.40;;
9972;SDS011;5027;53.560;10.062;2023-01-28T02:05:15;4.07;;;1.80;;
9972;SDS011;5027;53.560;10.062;2023-01-28T02:07:44;1.60;;;1.37;;
9972;SDS011;5027;53.560;10.062;2023-01-28T02:10:13;2.60;;;1.60;;
9972;SDS011;5027;53.560;10.062;2023-01-28T02:12:44;3.33;;;1.60;;
9972;SDS011;5027;53.560;10.062;2023-01-28T02:15:24;3.30;;;1.60;;
9972;SDS011;5027;53.560;10.062;2023-01-28T02:17:52;5.17;;;1.83;;
9972;SDS011;5027;53.560;10.062;2023-01-28T02:20:24;4.20;;;1.90;;
9972;SDS011;5027;53.560;10.062;2023-01-28T02:25:47;3.90;;;1.43;;
9972;SDS011;5027;53.560;10.062;2023-01-28T02:28:40;2.40;;;1.43;;
9972;SDS011;5027;53.560;10.062;2023-01-28T02:31:23;7.63;;;1.53;;
9972;SDS011;5027;53.560;10.062;2023-01-28T02:34:01;4.97;;;1.87;;
9972;SDS011;5027;53.560;10.062;2023-01-28T02:36:57;3.20;;;1.73;;
9972;SDS011;5027;53.560;10.062;2023-01-28T02:39:29;3.80;;;1.47;;
9972;SDS011;5027;53.560;10.062;2023-01-28T02:42:04;2.07;;;1.47;;
9972;SDS011;5027;53.560;10.062;2023-01-28T02:44:46;3.60;;;1.70;;
9972;SDS011;5027;53.560;10.062;2023-01-28T02:47:13;4.70;;;1.50;;
9972;SDS011;5027;53.560;10.062;2023-01-28T02:50:02;7.13;;;2.00;;
9972;SDS011;5027;53.560;10.062;2023-01-28T02:52:39;8.57;;;2.20;;
9972;SDS011;5027;53.560;10.062;2023-01-28T02:55:52;9.33;;;1.90;;
9972;SDS011;5027;53.560;10.062;2023-01-28T03:01:14;8.27;;;2.07;;
9972;SDS011;5027;53.560;10.062;2023-01-28T03:03:59;4.67;;;1.77;;
9972;SDS011;5027;53.560;10.062;2023-01-28T03:06:40;5.97;;;1.47;;
9972;SDS011;5027;53.560;10.062;2023-01-28T03:09:13;3.50;;;1.30;;
9972;SDS011;5027;53.560;10.062;2023-01-28T03:11:55;2.13;;;1.40;;
9972;SDS011;5027;53.560;10.062;2023-01-28T03:14:45;4.60;;;1.87;;
9972;SDS011;5027;53.560;10.062;2023-01-28T03:17:36;2.23;;;1.53;;
9972;SDS011;5027;53.560;10.062;2023-01-28T03:20:47;8.93;;;2.20;;
9972;SDS011;5027;53.560;10.062;2023-01-28T03:23:50;8.33;;;2.20;;
9972;SDS011;5027;53.560;10.062;2023-01-28T03:26:43;3.60;;;1.70;;
9972;SDS011;5027;53.560;10.062;2023-01-28T03:29:46;9.97;;;2.77;;
9972;SDS011;5027;53.560;10.062;2023-01-28T03:32:35;7.00;;;2.23;;
9972;SDS011;5027;53.560;10.062;2023-01-28T03:35:21;4.33;;;1.90;;
9972;SDS011;5027;53.560;10.062;2023-01-28T03:38:08;3.67;;;1.90;;
9972;SDS011;5027;53.560;10.062;2023-01-28T03:40:51;3.07;;;2.00;;
9972;SDS011;5027;53.560;10.062;2023-01-28T03:43:21;6.53;;;2.20;;
9972;SDS011;5027;53.560;10.062;2023-01-28T03:45:48;5.87;;;1.63;;
9972;SDS011;5027;53.560;10.062;2023-01-28T03:48:19;7.50;;;2.07;;
9972;SDS011;5027;53.560;10.062;2023-01-28T03:50:47;5.60;;;1.93;;
9972;SDS011;5027;53.560;10.062;2023-01-28T03:53:15;3.03;;;1.60;;
9972;SDS011;5027;53.560;10.062;2023-01-28T03:55:50;5.00;;;1.80;;
9972;SDS011;5027;53.560;10.062;2023-01-28T03:58:18;4.17;;;1.67;;
9972;SDS011;5027;53.560;10.062;2023-01-28T04:00:46;6.13;;;1.87;;
9972;SDS011;5027;53.560;10.062;2023-01-28T04:03:15;4.27;;;1.43;;
9972;SDS011;5027;53.560;10.062;2023-01-28T04:06:00;2.30;;;1.40;;
9972;SDS011;5027;53.560;10.062;2023-01-28T04:08:47;1.63;;;1.50;;
9972;SDS011;5027;53.560;10.062;2023-01-28T04:11:32;5.63;;;2.00;;
9972;SDS011;5027;53.560;10.062;2023-01-28T04:14:01;6.53;;;2.00;;
9972;SDS011;5027;53.560;10.062;2023-01-28T04:16:42;3.77;;;2.20;;
9972;SDS011;5027;53.560;10.062;2023-01-28T04:19:10;3.70;;;1.90;;
9972;SDS011;5027;53.560;10.062;2023-01-28T04:21:38;3.47;;;1.67;;
9972;SDS011;5027;53.560;10.062;2023-01-28T04:24:06;4.10;;;1.80;;
9972;SDS011;5027;53.560;10.062;2023-01-28T04:26:33;4.03;;;1.60;;
9972;SDS011;5027;53.560;10.062;2023-01-28T04:29:01;6.73;;;1.93;;
9972;SDS011;5027;53.560;10.062;2023-01-28T04:31:29;2.93;;;1.70;;
9972;SDS011;5027;53.560;10.062;2023-01-28T04:34:14;3.60;;;1.87;;
9972;SDS011;5027;53.560;10.062;2023-01-28T04:37:02;7.80;;;1.90;;
9972;SDS011;5027;53.560;10.062;2023-01-28T04:39:47;5.70;;;2.20;;
9972;SDS011;5027;53.560;10.062;2023-01-28T04:42:37;2.77;;;1.57;;
9972;SDS011;5027;53.560;10.062;2023-01-28T04:45:17;5.97;;;1.90;;
9972;SDS011;5027;53.560;10.062;2023-01-28T04:47:56;6.37;;;2.03;;
9972;SDS011;5027;53.560;10.062;2023-01-28T04:50:36;4.20;;;2.00;;
9972;SDS011;5027;53.560;10.062;2023-01-28T04:53:10;2.93;;;1.80;;
9972;SDS011;5027;53.560;10.062;2023-01-28T04:55:53;5.70;;;2.00;;
9972;SDS011;5027;53.560;10.062;2023-01-28T04:58:20;4.67;;;1.73;;
9972;SDS011;5027;53.560;10.062;2023-01-28T05:00:53;4.03;;;1.80;;
9972;SDS011;5027;53.560;10.062;2023-01-28T05:03:24;5.83;;;2.17;;
9972;SDS011;5027;53.560;10.062;2023-01-28T05:05:52;4.07;;;2.17;;
9972;SDS011;5027;53.560;10.062;2023-01-28T05:08:25;3.90;;;1.67;;
9972;SDS011;5027;53.560;10.062;2023-01-28T05:10:52;4.20;;;1.90;;
9972;SDS011;5027;53.560;10.062;2023-01-28T05:13:19;3.17;;;1.70;;
9972;SDS011;5027;53.560;10.062;2023-01-28T05:15:49;8.03;;;2.73;;
9972;SDS011;5027;53.560;10.062;2023-01-28T05:18:19;5.67;;;2.13;;
9972;SDS011;5027;53.560;10.062;2023-01-28T05:20:58;5.47;;;2.03;;
9972;SDS011;5027;53.560;10.062;2023-01-28T05:23:25;4.07;;;2.23;;
9972;SDS011;5027;53.560;10.062;2023-01-28T05:25:54;3.30;;;2.07;;
9972;SDS011;5027;53.560;10.062;2023-01-28T05:28:21;4.77;;;2.10;;
9972;SDS011;5027;53.560;10.062;2023-01-28T05:30:48;6.00;;;2.00;;
9972;SDS011;5027;53.560;10.062;2023-01-28T05:33:16;4.20;;;2.20;;
9972;SDS011;5027;53.560;10.062;2023-01-28T05:35:43;6.33;;;2.50;;
9972;SDS011;5027;53.560;10.062;2023-01-28T05:38:09;3.77;;;2.50;;
9972;SDS011;5027;53.560;10.062;2023-01-28T05:40:37;6.07;;;2.30;;
9972;SDS011;5027;53.560;10.062;2023-01-28T05:43:05;5.33;;;2.37;;
9972;SDS011;5027;53.560;10.062;2023-01-28T05:45:50;4.43;;;2.50;;
9972;SDS011;5027;53.560;10.062;2023-01-28T05:48:33;15.73;;;8.93;;
9972;SDS011;5027;53.560;10.062;2023-01-28T05:51:29;5.13;;;2.10;;
9972;SDS011;5027;53.560;10.062;2023-01-28T05:53:57;5.43;;;2.33;;
9972;SDS011;5027;53.560;10.062;2023-01-28T05:56:24;6.27;;;2.67;;
9972;SDS011;5027;53.560;10.062;2023-01-28T05:58:51;4.67;;;2.20;;
9972;SDS011;5027;53.560;10.062;2023-01-28T06:01:18;4.63;;;2.70;;
9972;SDS011;5027;53.560;10.062;2023-01-28T06:03:50;5.13;;;2.60;;
9972;SDS011;5027;53.560;10.062;2023-01-28T06:06:17;10.43;;;3.00;;
9972;SDS011;5027;53.560;10.062;2023-01-28T06:08:45;3.77;;;2.07;;
9972;SDS011;5027;53.560;10.062;2023-01-28T06:11:17;8.53;;;2.70;;
9972;SDS011;5027;53.560;10.062;2023-01-28T06:13:46;5.60;;;2.90;;
9972;SDS011;5027;53.560;10.062;2023-01-28T06:16:23;6.87;;;2.70;;
9972;SDS011;5027;53.560;10.062;2023-01-28T06:18:58;8.17;;;2.83;;
9972;SDS011;5027;53.560;10.062;2023-01-28T06:21:24;5.00;;;2.63;;
9972;SDS011;5027;53.560;10.062;2023-01-28T06:23:56;5.40;;;2.60;;
9972;SDS011;5027;53.560;10.062;2023-01-28T06:26:22;3.10;;;2.33;;
9972;SDS011;5027;53.560;10.062;2023-01-28T06:28:50;5.53;;;3.00;;
9972;SDS011;5027;53.560;10.062;2023-01-28T06:31:16;5.57;;;2.80;;
9972;SDS011;5027;53.560;10.062;2023-01-28T06:33:44;4.87;;;2.90;;
9972;SDS011;5027;53.560;10.062;2023-01-28T06:36:11;6.33;;;2.60;;
9972;SDS011;5027;53.560;10.062;2023-01-28T06:38:38;4.87;;;3.07;;
9972;SDS011;5027;53.560;10.062;2023-01-28T06:41:04;6.77;;;2.80;;
9972;SDS011;5027;53.560;10.062;2023-01-28T06:43:31;7.10;;;3.13;;
9972;SDS011;5027;53.560;10.062;2023-01-28T06:45:58;6.03;;;3.00;;
9972;SDS011;5027;53.560;10.062;2023-01-28T06:48:25;5.57;;;3.10;;
9972;SDS011;5027;53.560;10.062;2023-01-28T06:50:53;5.00;;;2.80;;
9972;SDS011;5027;53.560;10.062;2023-01-28T06:53:20;9.17;;;3.30;;
9972;SDS011;5027;53.560;10.062;2023-01-28T06:55:47;4.77;;;2.80;;
9972;SDS011;5027;53.560;10.062;2023-01-28T06:58:14;4.70;;;3.03;;
9972;SDS011;5027;53.560;10.062;2023-01-28T07:00:40;8.07;;;3.30;;
9972;SDS011;5027;53.560;10.062;2023-01-28T07:03:07;4.53;;;2.70;;
9972;SDS011;5027;53.560;10.062;2023-01-28T07:05:34;9.23;;;3.30;;
9972;SDS011;5027;53.560;10.062;2023-01-28T07:08:00;5.47;;;3.03;;
9972;SDS011;5027;53.560;10.062;2023-01-28T07:10:28;9.37;;;3.60;;
9972;SDS011;5027;53.560;10.062;2023-01-28T07:12:55;7.33;;;2.97;;
9972;SDS011;5027;53.560;10.062;2023-01-28T07:15:21;9.53;;;3.93;;
9972;SDS011;5027;53.560;10.062;2023-01-28T07:17:48;7.30;;;3.43;;
9972;SDS011;5027;53.560;10.062;2023-01-28T07:20:15;5.20;;;3.70;;
9972;SDS011;5027;53.560;10.062;2023-01-28T07:22:43;6.43;;;3.37;;
9972;SDS011;5027;53.560;10.062;2023-01-28T07:25:10;5.30;;;3.30;;
9972;SDS011;5027;53.560;10.062;2023-01-28T07:27:38;5.40;;;3.47;;
9972;SDS011;5027;53.560;10.062;2023-01-28T07:30:05;6.30;;;3.37;;
9972;SDS011;5027;53.560;10.062;2023-01-28T07:32:32;4.47;;;3.43;;
9972;SDS011;5027;53.560;10.062;2023-01-28T07:34:59;5.63;;;3.40;;
9972;SDS011;5027;53.560;10.062;2023-01-28T07:37:25;6.93;;;3.50;;
9972;SDS011;5027;53.560;10.062;2023-01-28T07:39:52;5.97;;;3.47;;
9972;SDS011;5027;53.560;10.062;2023-01-28T07:42:19;3.57;;;3.27;;
9972;SDS011;5027;53.560;10.062;2023-01-28T07:44:46;6.40;;;4.10;;
9972;SDS011;5027;53.560;10.062;2023-01-28T07:47:12;5.53;;;3.77;;
9972;SDS011;5027;53.560;10.062;2023-01-28T07:49:39;5.53;;;3.63;;
9972;SDS011;5027;53.560;10.062;2023-01-28T07:52:06;4.10;;;3.70;;
9972;SDS011;5027;53.560;10.062;2023-01-28T07:54:33;5.80;;;3.83;;
9972;SDS011;5027;53.560;10.062;2023-01-28T07:57:00;7.53;;;3.97;;
9972;SDS011;5027;53.560;10.062;2023-01-28T07:59:27;5.37;;;3.80;;
9972;SDS011;5027;53.560;10.062;2023-01-28T08:01:53;4.77;;;3.67;;
9972;SDS011;5027;53.560;10.062;2023-01-28T08:04:20;4.23;;;3.83;;
9972;SDS011;5027;53.560;10.062;2023-01-28T08:06:47;5.40;;;4.13;;
9972;SDS011;5027;53.560;10.062;2023-01-28T08:09:14;6.70;;;4.50;;
9972;SDS011;5027;53.560;10.062;2023-01-28T08:11:40;7.23;;;4.03;;
9972;SDS011;5027;53.560;10.062;2023-01-28T08:14:08;7.53;;;4.33;;
9972;SDS011;5027;53.560;10.062;2023-01-28T08:16:36;7.03;;;4.80;;
9972;SDS011;5027;53.560;10.062;2023-01-28T08:19:03;5.53;;;4.37;;
9972;SDS011;5027;53.560;10.062;2023-01-28T08:21:29;5.23;;;4.23;;
9972;SDS011;5027;53.560;10.062;2023-01-28T08:23:56;9.17;;;4.77;;
9972;SDS011;5027;53.560;10.062;2023-01-28T08:26:22;5.57;;;5.00;;
9972;SDS011;5027;53.560;10.062;2023-01-28T08:28:49;7.00;;;4.70;;
9972;SDS011;5027;53.560;10.062;2023-01-28T08:31:16;6.77;;;4.97;;
9972;SDS011;5027;53.560;10.062;2023-01-28T08:33:43;5.57;;;4.70;;
9972;SDS011;5027;53.560;10.062;2023-01-28T08:36:10;7.03;;;5.40;;
9972;SDS011;5027;53.560;10.062;2023-01-28T08:38:37;5.53;;;5.00;;
9972;SDS011;5027;53.560;10.062;2023-01-28T08:41:06;6.70;;;4.80;;
9972;SDS011;5027;53.560;10.062;2023-01-28T08:43:32;5.37;;;4.30;;
9972;SDS011;5027;53.560;10.062;2023-01-28T08:45:59;5.33;;;4.83;;
9972;SDS011;5027;53.560;10.062;2023-01-28T08:48:26;6.27;;;5.17;;
9972;SDS011;5027;53.560;10.062;2023-01-28T08:50:52;6.50;;;5.27;;
9972;SDS011;5027;53.560;10.062;2023-01-28T08:53:24;8.20;;;4.80;;
9972;SDS011;5027;53.560;10.062;2023-01-28T08:55:52;6.43;;;4.87;;
9972;SDS011;5027;53.560;10.062;2023-01-28T08:58:20;7.93;;;4.50;;
9972;SDS011;5027;53.560;10.062;2023-01-28T09:00:47;6.13;;;5.53;;
9972;SDS011;5027;53.560;10.062;2023-01-28T09:03:14;5.43;;;4.90;;
9972;SDS011;5027;53.560;10.062;2023-01-28T09:05:41;7.23;;;5.20;;
9972;SDS011;5027;53.560;10.062;2023-01-28T09:08:12;5.90;;;5.10;;
9972;SDS011;5027;53.560;10.062;2023-01-28T09:10:40;7.03;;;5.00;;
9972;SDS011;5027;53.560;10.062;2023-01-28T09:13:08;5.77;;;4.63;;
9972;SDS011;5027;53.560;10.062;2023-01-28T09:15:39;9.10;;;5.37;;
9972;SDS011;5027;53.560;10.062;2023-01-28T09:18:06;8.03;;;5.20;;
9972;SDS011;5027;53.560;10.062;2023-01-28T09:20:33;8.20;;;5.77;;
9972;SDS011;5027;53.560;10.062;2023-01-28T09:23:00;10.63;;;5.33;;
9972;SDS011;5027;53.560;10.062;2023-01-28T09:25:27;6.60;;;5.30;;
9972;SDS011;5027;53.560;10.062;2023-01-28T09:27:53;6.63;;;5.23;;
9972;SDS011;5027;53.560;10.062;2023-01-28T09:30:20;6.20;;;5.20;;
9972;SDS011;5027;53.560;10.062;2023-01-28T09:32:50;8.17;;;4.80;;
9972;SDS011;5027;53.560;10.062;2023-01-28T09:35:17;7.90;;;5.70;;
9972;SDS011;5027;53.560;10.062;2023-01-28T09:37:45;8.47;;;5.07;;
9972;SDS011;5027;53.560;10.062;2023-01-28T09:40:19;8.97;;;5.10;;
9972;SDS011;5027;53.560;10.062;2023-01-28T09:45:47;8.43;;;5.07;;
9972;SDS011;5027;53.560;10.062;2023-01-28T09:48:19;7.83;;;5.37;;
9972;SDS011;5027;53.560;10.062;2023-01-28T09:50:55;8.07;;;5.70;;
9972;SDS011;5027;53.560;10.062;2023-01-28T09:53:23;6.73;;;4.60;;
9972;SDS011;5027;53.560;10.062;2023-01-28T09:55:54;8.63;;;4.50;;
9972;SDS011;5027;53.560;10.062;2023-01-28T09:58:22;5.17;;;3.97;;
9972;SDS011;5027;53.560;10.062;2023-01-28T10:03:46;8.00;;;4.67;;
9972;SDS011;5027;53.560;10.062;2023-01-28T10:06:48;4.97;;;3.57;;
9972;SDS011;5027;53.560;10.062;2023-01-28T10:09:30;4.00;;;3.17;;
9972;SDS011;5027;53.560;10.062;2023-01-28T10:17:53;4.70;;;3.57;;
9972;SDS011;5027;53.560;10.062;2023-01-28T10:20:46;6.30;;;3.53;;
9972;SDS011;5027;53.560;10.062;2023-01-28T10:23:28;7.43;;;4.07;;
9972;SDS011;5027;53.560;10.062;2023-01-28T10:25:58;7.03;;;3.67;;
9972;SDS011;5027;53.560;10.062;2023-01-28T10:28:26;4.73;;;3.07;;
9972;SDS011;5027;53.560;10.062;2023-01-28T10:30:55;5.07;;;3.40;;
9972;SDS011;5027;53.560;10.062;2023-01-28T10:35:54;6.47;;;4.27;;
9972;SDS011;5027;53.560;10.062;2023-01-28T10:38:22;7.27;;;3.73;;
9972;SDS011;5027;53.560;10.062;2023-01-28T10:40:50;6.50;;;4.37;;
9972;SDS011;5027;53.560;10.062;2023-01-28T10:43:18;5.57;;;3.97;;
9972;SDS011;5027;53.560;10.062;2023-01-28T10:46:02;6.37;;;4.13;;
9972;SDS011;5027;53.560;10.062;2023-01-28T10:48:33;6.03;;;4.00;;
9972;SDS011;5027;53.560;10.062;2023-01-28T10:51:04;5.10;;;3.60;;
9972;SDS011;5027;53.560;10.062;2023-01-28T10:53:35;5.53;;;3.83;;
9972;SDS011;5027;53.560;10.062;2023-01-28T10:56:04;5.63;;;4.03;;
9972;SDS011;5027;53.560;10.062;2023-01-28T10:58:33;5.83;;;3.80;;
9972;SDS011;5027;53.560;10.062;2023-01-28T11:01:03;2.70;;;2.17;;
9972;SDS011;5027;53.560;10.062;2023-01-28T11:03:32;5.83;;;3.97;;
9972;SDS011;5027;53.560;10.062;2023-01-28T11:06:02;5.83;;;4.47;;
9972;SDS011;5027;53.560;10.062;2023-01-28T11:08:29;6.77;;;4.73;;
9972;SDS011;5027;53.560;10.062;2023-01-28T11:10:56;7.60;;;4.47;;
9972;SDS011;5027;53.560;10.062;2023-01-28T11:13:24;5.87;;;4.13;;
9972;SDS011;5027;53.560;10.062;2023-01-28T11:16:03;8.13;;;5.10;;
9972;SDS011;5027;53.560;10.062;2023-01-28T11:18:32;7.13;;;5.13;;
9972;SDS011;5027;53.560;10.062;2023-01-28T11:21:47;8.17;;;5.40;;
9972;SDS011;5027;53.560;10.062;2023-01-28T11:24:02;8.33;;;5.23;;
9972;SDS011;5027;53.560;10.062;2023-01-28T11:26:35;10.77;;;5.40;;
9972;SDS011;5027;53.560;10.062;2023-01-28T11:29:03;5.43;;;4.40;;
9972;SDS011;5027;53.560;10.062;2023-01-28T11:31:36;5.53;;;4.67;;
9972;SDS011;5027;53.560;10.062;2023-01-28T11:34:10;6.47;;;4.70;;
9972;SDS011;5027;53.560;10.062;2023-01-28T11:36:52;6.60;;;4.13;;
9972;SDS011;5027;53.560;10.062;2023-01-28T11:39:22;6.90;;;4.70;;
9972;SDS011;5027;53.560;10.062;2023-01-28T11:41:51;7.93;;;4.83;;
9972;SDS011;5027;53.560;10.062;2023-01-28T11:44:22;6.33;;;4.80;;
9972;SDS011;5027;53.560;10.062;2023-01-28T11:46:58;7.10;;;4.90;;
9972;SDS011;5027;53.560;10.062;2023-01-28T11:58:22;7.83;;;4.87;;
9972;SDS011;5027;53.560;10.062;2023-01-28T12:03:42;7.27;;;4.90;;
9972;SDS011;5027;53.560;10.062;2023-01-28T12:06:36;6.27;;;4.60;;
9972;SDS011;5027;53.560;10.062;2023-01-28T12:17:58;7.00;;;5.40;;
9972;SDS011;5027;53.560;10.062;2023-01-28T12:26:10;7.60;;;6.03;;
9972;SDS011;5027;53.560;10.062;2023-01-28T12:31:55;10.30;;;5.90;;
9972;SDS011;5027;53.560;10.062;2023-01-28T12:49:12;5.70;;;3.53;;
9972;SDS011;5027;53.560;10.062;2023-01-28T12:54:31;8.90;;;5.77;;
9972;SDS011;5027;53.560;10.062;2023-01-28T12:57:25;6.23;;;5.60;;
9972;SDS011;5027;53.560;10.062;2023-01-28T13:02:41;7.27;;;6.20;;
9972;SDS011;5027;53.560;10.062;2023-01-28T13:07:49;6.87;;;5.87;;
9972;SDS011;5027;53.560;10.062;2023-01-28T13:10:42;6.37;;;5.77;;
9972;SDS011;5027;53.560;10.062;2023-01-28T13:13:15;7.57;;;6.07;;
9972;SDS011;5027;53.560;10.062;2023-01-28T13:16:03;8.03;;;6.30;;
9972;SDS011;5027;53.560;10.062;2023-01-28T13:18:33;8.77;;;6.47;;
9972;SDS011;5027;53.560;10.062;2023-01-28T13:23:49;6.37;;;5.70;;
9972;SDS011;5027;53.560;10.062;2023-01-28T13:26:41;8.37;;;6.00;;
9972;SDS011;5027;53.560;10.062;2023-01-28T13:31:41;7.00;;;5.90;;
9972;SDS011;5027;53.560;10.062;2023-01-28T13:34:33;7.87;;;6.80;;
9972;SDS011;5027;53.560;10.062;2023-01-28T13:37:12;7.60;;;6.80;;
9972;SDS011;5027;53.560;10.062;2023-01-28T13:39:48;10.20;;;6.83;;
9972;SDS011;5027;53.560;10.062;2023-01-28T13:42:19;9.80;;;7.57;;
9972;SDS011;5027;53.560;10.062;2023-01-28T13:44:52;8.93;;;7.27;;
9972;SDS011;5027;53.560;10.062;2023-01-28T13:47:24;7.90;;;7.10;;
9972;SDS011;5027;53.560;10.062;2023-01-28T13:50:03;9.40;;;7.70;;
9972;SDS011;5027;53.560;10.062;2023-01-28T13:55:30;6.80;;;5.30;;
9972;SDS011;5027;53.560;10.062;2023-01-28T14:09:46;12.80;;;10.37;;
9972;SDS011;5027;53.560;10.062;2023-01-28T14:15:39;10.13;;;9.03;;
9972;SDS011;5027;53.560;10.062;2023-01-28T14:18:27;12.43;;;10.30;;
9972;SDS011;5027;53.560;10.062;2023-01-28T14:21:14;13.07;;;10.80;;
9972;SDS011;5027;53.560;10.062;2023-01-28T14:23:48;11.03;;;9.87;;
9972;SDS011;5027;53.560;10.062;2023-01-28T14:26:29;11.37;;;10.17;;
9972;SDS011;5027;53.560;10.062;2023-01-28T14:32:10;12.30;;;10.53;;
9972;SDS011;5027;53.560;10.062;2023-01-28T14:34:42;11.47;;;10.30;;
9972;SDS011;5027;53.560;10.062;2023-01-28T14:37:17;10.77;;;9.67;;
9972;SDS011;5027;53.560;10.062;2023-01-28T14:39:55;11.43;;;10.33;;
9972;SDS011;5027;53.560;10.062;2023-01-28T14:42:25;15.83;;;12.00;;
9972;SDS011;5027;53.560;10.062;2023-01-28T14:48:08;12.13;;;11.03;;
9972;SDS011;5027;53.560;10.062;2023-01-28T14:53:21;12.40;;;11.00;;
9972;SDS011;5027;53.560;10.062;2023-01-28T14:58:39;10.90;;;9.60;;
9972;SDS011;5027;53.560;10.062;2023-01-28T15:01:19;11.87;;;10.60;;
9972;SDS011;5027;53.560;10.062;2023-01-28T15:03:49;13.93;;;11.63;;
9972;SDS011;5027;53.560;10.062;2023-01-28T15:06:17;14.70;;;13.20;;
9972;SDS011;5027;53.560;10.062;2023-01-28T15:08:46;12.87;;;11.50;;
9972;SDS011;5027;53.560;10.062;2023-01-28T15:11:15;14.73;;;13.23;;
9972;SDS011;5027;53.560;10.062;2023-01-28T15:13:46;11.90;;;10.50;;
9972;SDS011;5027;53.560;10.062;2023-01-28T15:16:23;12.83;;;9.30;;
9972;SDS011;5027;53.560;10.062;2023-01-28T15:18:54;17.87;;;15.97;;
9972;SDS011;5027;53.560;10.062;2023-01-28T15:21:22;12.53;;;11.23;;
9972;SDS011;5027;53.560;10.062;2023-01-28T15:23:55;11.17;;;10.10;;
9972;SDS011;5027;53.560;10.062;2023-01-28T15:26:24;12.00;;;10.33;;
9972;SDS011;5027;53.560;10.062;2023-01-28T15:28:56;11.90;;;10.43;;
9972;SDS011;5027;53.560;10.062;2023-01-28T15:31:27;11.60;;;10.40;;
9972;SDS011;5027;53.560;10.062;2023-01-28T15:34:03;11.23;;;10.03;;
9972;SDS011;5027;53.560;10.062;2023-01-28T15:36:37;11.03;;;10.03;;
9972;SDS011;5027;53.560;10.062;2023-01-28T15:39:11;10.60;;;9.10;;
9972;SDS011;5027;53.560;10.062;2023-01-28T15:41:47;10.03;;;9.10;;
9972;SDS011;5027;53.560;10.062;2023-01-28T15:44:25;11.27;;;10.17;;
9972;SDS011;5027;53.560;10.062;2023-01-28T15:47:01;10.40;;;9.40;;
9972;SDS011;5027;53.560;10.062;2023-01-28T15:49:35;13.67;;;10.23;;
9972;SDS011;5027;53.560;10.062;2023-01-28T15:52:06;10.57;;;9.47;;
9972;SDS011;5027;53.560;10.062;2023-01-28T15:54:36;11.07;;;10.00;;
9972;SDS011;5027;53.560;10.062;2023-01-28T15:57:09;10.80;;;9.70;;
9972;SDS011;5027;53.560;10.062;2023-01-28T15:59:43;11.53;;;10.43;;
9972;SDS011;5027;53.560;10.062;2023-01-28T16:02:22;11.97;;;10.47;;
9972;SDS011;5027;53.560;10.062;2023-01-28T16:04:59;13.97;;;11.37;;
9972;SDS011;5027;53.560;10.062;2023-01-28T16:07:29;12.47;;;11.27;;
9972;SDS011;5027;53.560;10.062;2023-01-28T16:09:57;12.07;;;10.97;;
9972;SDS011;5027;53.560;10.062;2023-01-28T16:12:26;16.70;;;11.90;;
9972;SDS011;5027;53.560;10.062;2023-01-28T16:14:58;9.00;;;7.30;;
9972;SDS011;5027;53.560;10.062;2023-01-28T16:17:28;12.67;;;11.27;;
9972;SDS011;5027;53.560;10.062;2023-01-28T16:20:05;13.00;;;11.67;;
9972;SDS011;5027;53.560;10.062;2023-01-28T16:22:38;12.33;;;11.03;;
9972;SDS011;5027;53.560;10.062;2023-01-28T16:25:27;12.20;;;11.00;;
9972;SDS011;5027;53.560;10.062;2023-01-28T16:27:59;13.40;;;12.03;;
9972;SDS011;5027;53.560;10.062;2023-01-28T16:30:27;11.83;;;10.63;;
9972;SDS011;5027;53.560;10.062;2023-01-28T16:32:54;12.13;;;10.90;;
9972;SDS011;5027;53.560;10.062;2023-01-28T16:35:22;11.47;;;10.27;;
9972;SDS011;5027;53.560;10.062;2023-01-28T16:37:56;14.40;;;11.30;;
9972;SDS011;5027;53.560;10.062;2023-01-28T16:40:23;21.53;;;14.47;;
9972;SDS011;5027;53.560;10.062;2023-01-28T16:42:53;16.23;;;13.23;;
9972;SDS011;5027;53.560;10.062;2023-01-28T16:45:24;14.60;;;12.90;;
9972;SDS011;5027;53.560;10.062;2023-01-28T16:47:51;17.07;;;15.27;;
9972;SDS011;5027;53.560;10.062;2023-01-28T16:50:18;14.33;;;12.83;;
9972;SDS011;5027;53.560;10.062;2023-01-28T16:52:49;15.70;;;13.03;;
9972;SDS011;5027;53.560;10.062;2023-01-28T16:55:19;16.43;;;13.30;;
9972;SDS011;5027;53.560;10.062;2023-01-28T16:57:48;21.00;;;16.70;;
9972;SDS011;5027;53.560;10.062;2023-01-28T17:00:19;15.67;;;14.00;;
9972;SDS011;5027;53.560;10.062;2023-01-28T17:02:48;14.33;;;12.83;;
9972;SDS011;5027;53.560;10.062;2023-01-28T17:05:15;16.97;;;13.00;;
9972;SDS011;5027;53.560;10.062;2023-01-28T17:07:45;15.23;;;13.63;;
9972;SDS011;5027;53.560;10.062;2023-01-28T17:10:13;16.17;;;12.87;;
9972;SDS011;5027;53.560;10.062;2023-01-28T17:12:42;13.93;;;12.53;;
9972;SDS011;5027;53.560;10.062;2023-01-28T17:15:09;16.60;;;14.80;;
9972;SDS011;5027;53.560;10.062;2023-01-28T17:17:36;15.30;;;12.63;;